createdAt,value
2022-09-28T00:04:58.544Z,0.00
2022-09-28T00:16:59.054Z,0.01
2022-09-28T00:28:59.440Z,0.03
2022-09-28T00:40:59.934Z,0.02
2022-09-28T00:53:00.385Z,0.15
2022-09-28T01:05:00.856Z,0.00
2022-09-28T01:17:01.266Z,0.69
2022-09-28T01:29:02.574Z,0.46
2022-09-28T01:41:02.212Z,0.69
2022-09-28T01:53:02.670Z,0.13
2022-09-28T02:05:03.112Z,0.25
2022-09-28T02:17:03.573Z,0.09
2022-09-28T02:29:04.025Z,0.46
2022-09-28T02:41:04.491Z,0.21
2022-09-28T02:53:04.916Z,0.00
2022-09-28T03:05:05.378Z,0.00
2022-09-28T03:17:05.840Z,0.04
2022-09-28T03:29:06.291Z,0.00
2022-09-28T03:41:06.709Z,0.00
2022-09-28T03:53:07.184Z,0.00
2022-09-28T04:05:07.617Z,0.07
2022-09-28T04:17:08.097Z,0.15
2022-09-28T04:29:08.549Z,0.01
2022-09-28T04:41:08.964Z,0.00
2022-09-28T04:53:09.425Z,0.00
2022-09-28T05:05:09.888Z,0.00
2022-09-28T05:17:10.323Z,0.00
2022-09-28T05:29:10.865Z,0.00
2022-09-28T05:41:11.330Z,0.00
2022-09-28T05:53:11.736Z,0.00
2022-09-28T06:05:12.124Z,0.63
2022-09-28T06:17:12.634Z,0.80
2022-09-28T06:29:17.304Z,0.21
2022-09-28T06:41:13.528Z,0.12
2022-09-28T06:53:13.951Z,0.60
2022-09-28T07:05:14.427Z,1.96
2022-09-28T07:17:15.113Z,1.26
2022-09-28T07:29:15.349Z,2.36
2022-09-28T07:41:15.784Z,1.72
2022-09-28T07:53:16.236Z,2.64
2022-09-28T08:05:16.646Z,1.16
2022-09-28T08:17:17.160Z,1.97
2022-09-28T08:29:17.585Z,1.21
2022-09-28T08:41:18.076Z,1.73
2022-09-28T08:53:18.468Z,2.00
2022-09-28T09:05:18.965Z,1.75
2022-09-28T09:17:19.410Z,2.65
2022-09-28T09:29:19.837Z,1.44
2022-09-28T09:41:20.322Z,2.46
2022-09-28T09:53:20.802Z,2.53
2022-09-28T10:05:21.221Z,2.14
2022-09-28T10:17:21.662Z,2.70
2022-09-28T10:29:22.157Z,2.17
2022-09-28T10:41:22.602Z,2.93
2022-09-28T10:53:23.102Z,2.65
2022-09-28T11:05:23.457Z,2.81
2022-09-28T11:17:23.945Z,1.89
2022-09-28T11:29:24.416Z,2.21
2022-09-28T11:41:24.858Z,2.67
2022-09-28T11:53:25.311Z,2.21
2022-09-28T12:05:25.776Z,1.99
2022-09-28T12:17:26.291Z,1.92
2022-09-28T12:29:26.653Z,2.21
2022-09-28T12:41:27.546Z,2.99
2022-09-28T12:53:27.788Z,2.18
2022-09-28T13:05:28.067Z,1.96
2022-09-28T13:17:28.516Z,1.83
2022-09-28T13:29:29.074Z,2.05
2022-09-28T13:41:29.416Z,1.61
2022-09-28T13:53:29.870Z,1.09
2022-09-28T14:05:30.346Z,1.28
2022-09-28T14:17:30.786Z,1.49
2022-09-28T14:29:31.202Z,0.86
2022-09-28T14:41:31.731Z,1.46
2022-09-28T14:53:32.157Z,1.17
2022-09-28T15:05:32.716Z,1.00
2022-09-28T15:17:38.461Z,1.30
2022-09-28T15:29:33.681Z,1.33
2022-09-28T15:41:33.992Z,0.35
2022-09-28T15:53:34.439Z,0.57
2022-09-28T16:05:37.609Z,0.25
2022-09-28T16:17:35.394Z,0.34
2022-09-28T16:29:35.815Z,0.04
2022-09-28T16:41:36.960Z,0.03
2022-09-28T16:53:37.788Z,0.00
2022-09-28T17:05:37.303Z,0.07
2022-09-28T17:17:37.636Z,0.23
2022-09-28T17:29:38.072Z,0.86
2022-09-28T17:41:38.652Z,0.77
2022-09-28T17:53:38.985Z,0.60
2022-09-28T18:05:39.467Z,0.50
2022-09-28T18:17:40.192Z,0.48
2022-09-28T18:29:40.327Z,0.00
2022-09-28T18:41:40.813Z,0.09
2022-09-28T18:53:41.269Z,0.03
2022-09-28T19:05:41.710Z,0.00
2022-09-28T19:17:42.157Z,0.21
2022-09-28T19:29:42.624Z,0.07
2022-09-28T19:41:43.782Z,0.32
2022-09-28T19:53:43.495Z,0.22
2022-09-28T20:05:43.925Z,0.45
2022-09-28T20:17:44.385Z,0.68
2022-09-28T20:29:44.857Z,0.08
2022-09-28T20:41:45.295Z,0.16
2022-09-28T20:53:45.757Z,0.01
2022-09-28T21:05:46.219Z,0.13
2022-09-28T21:17:46.673Z,0.09
2022-09-28T21:29:47.146Z,0.01
2022-09-28T21:41:47.575Z,0.01
2022-09-28T21:53:48.057Z,0.01
2022-09-28T22:05:48.511Z,0.01
2022-09-28T22:17:48.930Z,0.01
2022-09-28T22:29:49.430Z,0.01
2022-09-28T22:41:49.895Z,0.07
2022-09-28T22:53:50.309Z,0.07
2022-09-28T23:05:50.789Z,0.76
2022-09-28T23:17:51.181Z,0.57
2022-09-28T23:29:51.696Z,0.21
2022-09-28T23:41:52.089Z,0.58
2022-09-28T23:53:52.598Z,0.23
